createdAt,value
2023-04-26T00:02:54.692Z,4.40
2023-04-26T00:07:57.333Z,4.30
2023-04-26T00:12:59.586Z,4.20
2023-04-26T00:18:01.745Z,4.30
2023-04-26T00:23:04.695Z,4.40
2023-04-26T00:28:06.848Z,4.40
2023-04-26T00:33:09.332Z,4.40
2023-04-26T00:38:11.503Z,4.30
2023-04-26T00:43:13.701Z,4.20
2023-04-26T00:48:16.555Z,4.20
2023-04-26T00:53:19.191Z,4.20
2023-04-26T00:58:21.423Z,4.20
2023-04-26T01:03:23.828Z,4.20
2023-04-26T01:08:26.391Z,4.30
2023-04-26T01:13:29.786Z,4.30
2023-04-26T01:18:31.951Z,4.30
2023-04-26T01:23:34.308Z,4.30
2023-04-26T01:28:36.683Z,4.30
2023-04-26T01:33:40.413Z,4.20
2023-04-26T01:38:42.582Z,4.10
2023-04-26T01:43:44.873Z,4.00
2023-04-26T01:48:47.480Z,4.00
2023-04-26T01:53:49.695Z,4.00
2023-04-26T01:58:52.125Z,4.10
2023-04-26T02:03:54.478Z,4.10
2023-04-26T02:08:57.259Z,4.10
2023-04-26T02:13:59.523Z,4.20
2023-04-26T02:19:01.725Z,4.20
2023-04-26T02:24:04.064Z,4.20
2023-04-26T02:29:06.674Z,4.10
2023-04-26T02:34:09.023Z,4.00
2023-04-26T02:39:12.350Z,4.00
2023-04-26T02:44:14.888Z,4.00
2023-04-26T02:49:17.164Z,4.10
2023-04-26T02:54:19.600Z,4.00
2023-04-26T02:59:21.775Z,3.90
2023-04-26T03:04:24.106Z,3.80
2023-04-26T03:09:26.862Z,3.70
2023-04-26T03:14:29.108Z,3.60
2023-04-26T03:19:32.250Z,3.50
2023-04-26T03:24:35.386Z,3.50
2023-04-26T03:29:37.714Z,3.40
2023-04-26T03:34:40.157Z,3.40
2023-04-26T03:39:42.499Z,3.30
2023-04-26T03:44:45.943Z,3.40
2023-04-26T03:49:48.129Z,3.50
2023-04-26T03:54:50.801Z,3.60
2023-04-26T03:59:53.289Z,3.70
2023-04-26T04:04:56.407Z,3.80
2023-04-26T04:09:59.927Z,3.80
2023-04-26T04:15:03.148Z,3.90
2023-04-26T04:20:07.682Z,3.90
2023-04-26T04:25:10.728Z,3.90
2023-04-26T04:30:14.897Z,4.00
2023-04-26T04:35:17.942Z,4.00
2023-04-26T04:40:20.232Z,4.00
2023-04-26T04:45:24.174Z,4.10
2023-04-26T04:50:29.704Z,4.20
2023-04-26T04:55:32.297Z,4.30
2023-04-26T05:00:35.156Z,4.40
2023-04-26T05:05:45.808Z,4.40
2023-04-26T05:10:51.837Z,4.40
2023-04-26T05:15:54.508Z,4.50
2023-04-26T05:20:58.307Z,4.50
2023-04-26T05:26:06.236Z,4.70
2023-04-26T05:31:28.825Z,4.70
2023-04-26T05:36:45.950Z,4.80
2023-04-26T05:41:48.464Z,4.80
2023-04-26T05:46:50.924Z,4.80
2023-04-26T05:51:53.142Z,4.70
2023-04-26T05:56:57.803Z,4.70
2023-04-26T06:02:02.238Z,4.70
2023-04-26T06:07:04.927Z,4.80
2023-04-26T06:12:07.885Z,4.90
2023-04-26T06:17:15.275Z,5.00
2023-04-26T06:22:18.474Z,5.00
2023-04-26T06:27:21.215Z,5.10
2023-04-26T06:32:24.691Z,5.20
2023-04-26T06:37:28.036Z,5.30
2023-04-26T06:42:30.569Z,5.50
2023-04-26T06:47:55.909Z,5.70
2023-04-26T06:53:00.128Z,5.90
2023-04-26T06:58:02.497Z,6.20
2023-04-26T07:03:04.842Z,6.70
2023-04-26T07:08:07.411Z,7.10
2023-04-26T07:13:09.799Z,7.20
2023-04-26T07:18:12.430Z,7.40
2023-04-26T07:23:14.691Z,7.20
2023-04-26T07:28:16.946Z,7.20
2023-04-26T07:33:19.302Z,7.20
2023-04-26T07:38:21.611Z,7.40
2023-04-26T07:43:23.875Z,7.50
2023-04-26T07:48:26.127Z,7.60
2023-04-26T07:53:28.314Z,7.70
2023-04-26T07:58:30.499Z,7.90
2023-04-26T08:03:33.877Z,8.30
2023-04-26T08:08:42.953Z,8.50
2023-04-26T08:13:45.482Z,8.90
2023-04-26T08:18:48.104Z,9.40
2023-04-26T08:23:50.784Z,9.30
2023-04-26T08:28:53.123Z,9.60
2023-04-26T08:33:55.359Z,10.00
2023-04-26T08:38:58.257Z,9.70
2023-04-26T08:44:01.763Z,9.50
2023-04-26T08:49:36.274Z,9.30
2023-04-26T08:54:39.797Z,9.00
2023-04-26T08:59:44.286Z,8.10
2023-04-26T09:04:47.460Z,7.40
2023-04-26T09:09:53.154Z,7.10
2023-04-26T09:14:56.584Z,7.10
2023-04-26T09:20:00.412Z,7.40
2023-04-26T09:25:05.195Z,8.20
2023-04-26T09:30:17.743Z,9.40
2023-04-26T09:35:41.982Z,10.90
2023-04-26T09:40:44.167Z,11.30
2023-04-26T09:45:54.199Z,12.80
2023-04-26T09:50:57.870Z,12.00
2023-04-26T09:56:10.586Z,10.80
2023-04-26T10:01:15.283Z,10.50
2023-04-26T10:06:18.415Z,10.20
2023-04-26T10:11:22.141Z,10.00
2023-04-26T10:16:24.965Z,9.90
2023-04-26T10:21:32.104Z,10.00
2023-04-26T10:26:56.917Z,11.10
2023-04-26T10:32:02.307Z,11.90
2023-04-26T10:37:11.881Z,11.70
2023-04-26T10:42:27.984Z,12.80
2023-04-26T10:47:32.082Z,13.40
2023-04-26T10:52:35.275Z,14.60
2023-04-26T10:57:54.470Z,13.30
2023-04-26T11:03:03.768Z,12.70
2023-04-26T11:08:16.094Z,12.40
2023-04-26T11:13:19.782Z,11.60
2023-04-26T11:18:22.640Z,10.60
2023-04-26T11:23:28.765Z,9.60
2023-04-26T11:28:35.327Z,8.70
2023-04-26T11:33:37.549Z,8.70
2023-04-26T11:38:39.816Z,9.20
2023-04-26T11:43:42.169Z,9.80
2023-04-26T11:48:44.537Z,10.50
2023-04-26T11:53:46.717Z,12.00
2023-04-26T11:58:53.058Z,13.00
2023-04-26T12:03:57.583Z,12.30
2023-04-26T12:09:03.548Z,11.70
2023-04-26T12:14:06.309Z,11.50
2023-04-26T12:19:09.855Z,11.70
2023-04-26T12:24:30.642Z,12.10
2023-04-26T12:29:33.264Z,14.30
2023-04-26T12:34:35.476Z,14.00
2023-04-26T12:39:37.669Z,13.50
2023-04-26T12:44:39.910Z,13.70
2023-04-26T12:49:42.106Z,13.20
2023-04-26T12:54:45.027Z,11.80
2023-04-26T12:59:47.438Z,10.90
2023-04-26T13:04:49.794Z,10.70
2023-04-26T13:09:52.324Z,10.40
2023-04-26T13:14:55.369Z,10.50
2023-04-26T13:19:57.787Z,10.50
2023-04-26T13:25:00.000Z,11.00
2023-04-26T13:30:02.290Z,11.30
2023-04-26T13:35:04.946Z,12.80
2023-04-26T13:40:08.078Z,13.10
2023-04-26T13:45:12.244Z,12.50
2023-04-26T13:50:14.482Z,11.40
2023-04-26T13:55:17.237Z,10.50
2023-04-26T14:00:20.034Z,10.00
2023-04-26T14:05:23.842Z,9.60
2023-04-26T14:10:26.485Z,9.60
2023-04-26T14:15:28.968Z,9.50
2023-04-26T14:20:31.575Z,9.50
2023-04-26T14:25:33.796Z,9.50
2023-04-26T14:30:36.010Z,9.40
2023-04-26T14:35:38.870Z,9.30
2023-04-26T14:40:41.280Z,9.20
2023-04-26T15:13:03.777Z,8.70
2023-04-26T15:21:20.365Z,8.60
2023-04-26T15:26:23.617Z,8.70
2023-04-26T15:31:26.279Z,8.80
2023-04-26T15:36:29.278Z,8.90
2023-04-26T15:41:32.442Z,9.20
2023-04-26T15:46:37.377Z,9.50
2023-04-26T15:51:40.765Z,9.80
2023-04-26T15:56:45.182Z,10.30
2023-04-26T16:01:47.854Z,11.60
2023-04-26T16:06:51.223Z,13.60
2023-04-26T16:11:53.633Z,15.10
2023-04-26T16:16:57.718Z,14.80
2023-04-26T16:22:00.427Z,13.70
2023-04-26T16:27:07.174Z,12.30
2023-04-26T16:32:09.394Z,11.30
2023-04-26T16:37:11.764Z,10.80
2023-04-26T16:42:14.071Z,10.30
2023-04-26T16:47:16.376Z,9.90
2023-04-26T16:52:18.760Z,9.60
2023-04-26T16:57:21.046Z,9.40
2023-04-26T17:02:23.622Z,9.20
2023-04-26T17:07:26.186Z,9.10
2023-04-26T17:12:32.331Z,9.10
2023-04-26T17:17:35.116Z,9.10
2023-04-26T17:22:37.618Z,9.10
2023-04-26T17:27:40.105Z,9.00
2023-04-26T17:32:42.726Z,8.80
2023-04-26T17:37:50.395Z,8.90
2023-04-26T17:42:52.913Z,8.90
2023-04-26T17:47:55.129Z,9.00
2023-04-26T17:52:57.423Z,9.00
2023-04-26T17:58:00.011Z,8.90
2023-04-26T18:03:04.458Z,8.80
2023-04-26T18:08:07.354Z,8.70
2023-04-26T18:13:11.369Z,8.60
2023-04-26T18:18:13.884Z,8.40
2023-04-26T18:23:16.627Z,8.30
2023-04-26T18:28:19.547Z,8.20
2023-04-26T18:33:22.325Z,8.10
2023-04-26T18:38:26.766Z,8.00
2023-04-26T18:43:28.922Z,7.90
2023-04-26T18:54:45.683Z,7.90
2023-04-26T18:59:48.558Z,7.80
2023-04-26T19:12:57.028Z,7.60
2023-04-26T19:17:59.251Z,7.50
2023-04-26T19:23:01.447Z,7.40
2023-04-26T19:28:03.652Z,7.40
2023-04-26T19:33:06.330Z,7.20
2023-04-26T19:38:10.034Z,7.10
2023-04-26T19:43:12.210Z,7.10
2023-04-26T19:48:14.414Z,7.10
2023-04-26T19:53:16.500Z,6.90
2023-04-26T19:58:18.735Z,6.80
2023-04-26T20:03:21.072Z,6.70
2023-04-26T20:08:23.225Z,6.60
2023-04-26T20:13:25.302Z,6.60
2023-04-26T20:18:27.758Z,6.70
2023-04-26T20:23:30.678Z,6.80
2023-04-26T20:28:32.764Z,6.80
2023-04-26T20:33:34.837Z,6.80
2023-04-26T20:38:36.996Z,6.80
2023-04-26T20:43:42.012Z,6.70
2023-04-26T20:48:44.054Z,6.60
2023-04-26T20:53:46.040Z,6.60
2023-04-26T20:58:48.017Z,6.30
2023-04-26T21:03:50.121Z,6.20
2023-04-26T21:08:52.359Z,6.10
2023-04-26T21:13:54.615Z,6.00
2023-04-26T21:18:57.068Z,5.80
2023-04-26T21:23:59.317Z,5.70
2023-04-26T21:29:01.478Z,5.60
2023-04-26T21:34:04.024Z,5.50
2023-04-26T21:39:06.227Z,5.40
2023-04-26T21:44:08.351Z,5.30
2023-04-26T21:49:10.839Z,5.20
2023-04-26T21:54:13.823Z,5.10
2023-04-26T21:59:15.840Z,5.00
2023-04-26T22:04:18.013Z,5.00
2023-04-26T22:09:21.262Z,4.90
2023-04-26T22:14:23.427Z,4.80
2023-04-26T22:19:25.489Z,4.70
2023-04-26T22:24:27.477Z,4.60
2023-04-26T22:29:29.755Z,4.50
2023-04-26T22:34:31.748Z,4.50
2023-04-26T22:39:33.777Z,4.40
2023-04-26T22:44:35.915Z,4.30
2023-04-26T22:49:37.995Z,4.30
2023-04-26T22:54:40.007Z,4.30
2023-04-26T22:59:41.988Z,4.20
2023-04-26T23:04:44.323Z,4.10
2023-04-26T23:09:46.407Z,4.00
2023-04-26T23:14:48.862Z,4.00
2023-04-26T23:19:52.034Z,3.90
2023-04-26T23:24:54.040Z,3.90
2023-04-26T23:29:57.069Z,3.80
2023-04-26T23:34:59.176Z,3.80
2023-04-26T23:40:01.483Z,3.80
2023-04-26T23:45:04.661Z,3.80
2023-04-26T23:50:07.588Z,3.70
2023-04-26T23:55:09.930Z,3.60
